Time;durP1;ratioP1;P1;durP2;ratioP2;P2;SDS_P1;SDS_P2;PMS_P1;PMS_P2;Temp;Humidity;BMP_temperature;BMP_pressure;BME280_temperature;BME280_humidity;BME280_pressure;Samples;Min_cycle;Max_cycle;Signal;HPM_P1;HPM_P2
2021/09/27 00:01:54;;;;;;;187.65;51.88;;;;;;;;;;6285002;28;20044;-75
2021/09/27 00:04:56;;;;;;;142.13;50.08;;;;;;;;;;6292697;28;20040;-83
2021/09/27 00:07:59;;;;;;;130.85;50.17;;;;;;;;;;6285977;28;20044;-75
2021/09/27 00:11:04;;;;;;;128.30;49.47;;;;;;;;;;6285616;28;20468;-73
2021/09/27 00:14:06;;;;;;;137.88;48.97;;;;;;;;;;6291917;28;20044;-74
2021/09/27 00:17:09;;;;;;;145.68;47.05;;;;;;;;;;6278595;28;20049;-73
2021/09/27 00:20:12;;;;;;;170.68;49.90;;;;;;;;;;6285637;28;20127;-80
2021/09/27 00:23:16;;;;;;;186.48;52.03;;;;;;;;;;6287404;28;20128;-73
2021/09/27 00:26:20;;;;;;;192.02;51.53;;;;;;;;;;6287816;28;20556;-75
2021/09/27 00:29:21;;;;;;;;;;;;;;;;;;6285128;28;20117;-73
2021/09/27 00:32:22;;;;;;;189.75;51.28;;;;;;;;;;6280162;28;20022;-75
2021/09/27 00:35:29;;;;;;;185.70;50.50;;;;;;;;;;6278492;28;20076;-79
2021/09/27 00:38:31;;;;;;;198.05;50.88;;;;;;;;;;6283176;28;20045;-75
2021/09/27 00:41:34;;;;;;;190.83;51.03;;;;;;;;;;6283160;28;20052;-78
2021/09/27 00:44:37;;;;;;;175.37;52.47;;;;;;;;;;6294773;28;20126;-77
2021/09/27 00:47:38;;;;;;;171.05;49.13;;;;;;;;;;6283617;28;20318;-75
2021/09/27 00:50:44;;;;;;;174.43;48.85;;;;;;;;;;6285315;28;20093;-75
2021/09/27 00:53:49;;;;;;;191.35;49.22;;;;;;;;;;6290905;28;20052;-75
2021/09/27 00:56:54;;;;;;;144.32;49.17;;;;;;;;;;6287018;28;20048;-77
2021/09/27 00:59:56;;;;;;;170.77;50.03;;;;;;;;;;6294498;28;20500;-75
2021/09/27 01:02:58;;;;;;;171.38;49.13;;;;;;;;;;6283632;28;20052;-75
2021/09/27 01:06:10;;;;;;;138.07;47.53;;;;;;;;;;6285208;28;20114;-74
2021/09/27 01:09:24;;;;;;;115.78;46.58;;;;;;;;;;6264884;28;20087;-74
2021/09/27 01:12:46;;;;;;;121.10;45.63;;;;;;;;;;6286828;28;20052;-78
2021/09/27 01:15:56;;;;;;;127.90;43.83;;;;;;;;;;6287272;28;20048;-75
2021/09/27 01:19:06;;;;;;;143.55;45.83;;;;;;;;;;6287923;28;20599;-75
2021/09/27 01:22:14;;;;;;;142.70;45.80;;;;;;;;;;6284793;28;20052;-75
2021/09/27 01:25:30;;;;;;;161.00;47.13;;;;;;;;;;6290338;28;20044;-78
2021/09/27 01:28:49;;;;;;;144.43;45.65;;;;;;;;;;6289771;28;20054;-75
2021/09/27 01:32:17;;;;;;;153.25;47.42;;;;;;;;;;6282995;28;20044;-75
2021/09/27 01:35:32;;;;;;;121.80;47.08;;;;;;;;;;6283241;28;20040;-80
2021/09/27 01:38:39;;;;;;;101.07;43.83;;;;;;;;;;6292812;28;20044;-75
2021/09/27 01:41:47;;;;;;;108.93;43.40;;;;;;;;;;6286696;28;20081;-75
2021/09/27 01:44:53;;;;;;;101.85;44.65;;;;;;;;;;6294005;28;20049;-76
2021/09/27 01:48:06;;;;;;;117.70;42.42;;;;;;;;;;6287203;28;20128;-75
2021/09/27 01:51:11;;;;;;;127.32;44.75;;;;;;;;;;6283935;28;20048;-75
2021/09/27 01:54:19;;;;;;;121.82;43.63;;;;;;;;;;6291618;28;20119;-75
2021/09/27 01:57:25;;;;;;;132.10;44.95;;;;;;;;;;6288598;28;20618;-75
2021/09/27 02:00:29;;;;;;;137.70;44.78;;;;;;;;;;6290795;28;20040;-78
2021/09/27 02:03:36;;;;;;;116.22;47.70;;;;;;;;;;6287621;28;20048;-75
2021/09/27 02:06:40;;;;;;;121.88;42.88;;;;;;;;;;6279484;28;20524;-75
2021/09/27 02:09:47;;;;;;;147.18;47.47;;;;;;;;;;6291047;28;20074;-75
2021/09/27 02:12:53;;;;;;;103.63;45.33;;;;;;;;;;6287014;28;20053;-75
2021/09/27 02:16:00;;;;;;;102.70;43.00;;;;;;;;;;6285447;28;20127;-75
2021/09/27 02:19:06;;;;;;;111.72;43.05;;;;;;;;;;6288415;28;20051;-75
2021/09/27 02:22:12;;;;;;;115.90;42.67;;;;;;;;;;6287016;28;20044;-77
2021/09/27 02:25:16;;;;;;;120.35;43.92;;;;;;;;;;6289945;28;20082;-81
2021/09/27 02:28:21;;;;;;;135.38;47.58;;;;;;;;;;6292096;28;20048;-75
2021/09/27 02:31:26;;;;;;;115.50;44.63;;;;;;;;;;6284177;28;20139;-76
2021/09/27 02:34:33;;;;;;;134.05;45.40;;;;;;;;;;6293433;28;20523;-75
2021/09/27 02:37:39;;;;;;;136.70;46.05;;;;;;;;;;6285349;28;20170;-76
2021/09/27 02:40:46;;;;;;;143.18;45.83;;;;;;;;;;6286883;28;20053;-76
2021/09/27 02:43:48;;;;;;;160.80;48.33;;;;;;;;;;6287360;28;20049;-79
2021/09/27 02:46:54;;;;;;;147.05;48.42;;;;;;;;;;6285373;28;20048;-76
2021/09/27 02:49:58;;;;;;;142.15;46.33;;;;;;;;;;6289317;28;20075;-77
2021/09/27 02:53:00;;;;;;;150.55;46.17;;;;;;;;;;6286070;28;20511;-76
2021/09/27 02:56:30;;;;;;;156.70;49.03;;;;;;;;;;6291882;28;20068;-76
2021/09/27 02:59:40;;;;;;;160.10;50.25;;;;;;;;;;6293834;28;20089;-76
2021/09/27 03:02:49;;;;;;;160.15;50.22;;;;;;;;;;6279104;28;20037;-76
2021/09/27 03:06:04;;;;;;;170.43;50.75;;;;;;;;;;6292447;28;20048;-76
2021/09/27 03:09:09;;;;;;;165.70;49.83;;;;;;;;;;6285786;28;20049;-76
2021/09/27 03:12:16;;;;;;;156.65;49.13;;;;;;;;;;6288447;28;20054;-76
2021/09/27 03:15:59;;;;;;;174.20;51.20;;;;;;;;;;6260822;28;20054;-78
2021/09/27 03:19:12;;;;;;;150.55;51.28;;;;;;;;;;6278022;28;20053;-76
2021/09/27 03:22:22;;;;;;;158.63;49.90;;;;;;;;;;6283315;28;20128;-76
2021/09/27 03:25:31;;;;;;;169.02;50.08;;;;;;;;;;6285756;28;20058;-79
2021/09/27 03:28:42;;;;;;;160.40;49.97;;;;;;;;;;6274483;28;20631;-76
2021/09/27 03:31:50;;;;;;;161.98;47.95;;;;;;;;;;6280823;28;20052;-76
2021/09/27 03:34:59;;;;;;;168.25;52.00;;;;;;;;;;6288268;28;20055;-76
2021/09/27 03:38:05;;;;;;;153.85;52.50;;;;;;;;;;6282042;28;20132;-76
2021/09/27 03:41:13;;;;;;;149.13;50.35;;;;;;;;;;6278082;28;20552;-76
2021/09/27 03:44:20;;;;;;;144.75;50.95;;;;;;;;;;6291489;28;20638;-76
2021/09/27 03:47:27;;;;;;;141.48;48.33;;;;;;;;;;6277628;28;20127;-79
2021/09/27 03:50:31;;;;;;;134.20;45.25;;;;;;;;;;6282017;28;20840;-76
2021/09/27 03:53:37;;;;;;;130.57;46.78;;;;;;;;;;6289443;28;20128;-76
2021/09/27 03:56:42;;;;;;;144.20;44.05;;;;;;;;;;6282870;28;20044;-76
2021/09/27 03:59:49;;;;;;;140.05;43.88;;;;;;;;;;6293560;28;20068;-76
2021/09/27 04:02:55;;;;;;;126.35;43.67;;;;;;;;;;6279986;28;20044;-76
2021/09/27 04:06:00;;;;;;;117.32;42.95;;;;;;;;;;6280359;28;20146;-76
2021/09/27 04:09:09;;;;;;;111.93;42.22;;;;;;;;;;6290789;28;20041;-76
2021/09/27 04:12:38;;;;;;;116.97;42.30;;;;;;;;;;6283035;28;20136;-76
2021/09/27 04:15:52;;;;;;;105.97;41.95;;;;;;;;;;6280832;28;20044;-74
2021/09/27 04:19:00;;;;;;;87.63;38.47;;;;;;;;;;6280684;28;20117;-77
2021/09/27 04:22:06;;;;;;;87.75;37.25;;;;;;;;;;6283172;28;20040;-75
2021/09/27 04:25:16;;;;;;;105.18;37.80;;;;;;;;;;6289125;28;20087;-80
2021/09/27 04:28:42;;;;;;;87.10;38.17;;;;;;;;;;6290612;28;20043;-76
2021/09/27 04:31:49;;;;;;;70.93;35.35;;;;;;;;;;6281936;28;20052;-77
2021/09/27 04:34:58;;;;;;;69.38;33.85;;;;;;;;;;6286845;28;20518;-77
2021/09/27 04:38:01;;;;;;;81.70;36.95;;;;;;;;;;6281158;28;20037;-78
2021/09/27 04:41:30;;;;;;;76.22;35.25;;;;;;;;;;6283769;28;20045;-77
2021/09/27 04:44:52;;;;;;;75.78;36.70;;;;;;;;;;6289035;28;20044;-75
2021/09/27 04:47:58;;;;;;;83.78;36.47;;;;;;;;;;6276483;28;20140;-75
2021/09/27 04:51:05;;;;;;;84.70;38.25;;;;;;;;;;6282426;28;20060;-75
2021/09/27 04:54:30;;;;;;;81.30;37.42;;;;;;;;;;6278468;28;20101;-76
2021/09/27 04:57:42;;;;;;;69.30;34.95;;;;;;;;;;6284628;28;20044;-76
2021/09/27 05:00:56;;;;;;;59.53;33.90;;;;;;;;;;6284274;28;20195;-78
2021/09/27 05:04:11;;;;;;;69.13;33.10;;;;;;;;;;6287248;28;20083;-75
2021/09/27 05:07:47;;;;;;;57.85;31.00;;;;;;;;;;6284474;28;20361;-75
2021/09/27 05:11:17;;;;;;;52.58;28.60;;;;;;;;;;6277458;28;20053;-75
2021/09/27 05:14:31;;;;;;;53.78;29.70;;;;;;;;;;6289308;28;20148;-76
2021/09/27 05:17:36;;;;;;;;;;;;;;;;;;6280605;28;20102;-76
2021/09/27 05:20:54;;;;;;;59.17;30.05;;;;;;;;;;6284515;28;20019;-76
2021/09/27 05:24:03;;;;;;;61.45;31.30;;;;;;;;;;6291077;28;20437;-76
2021/09/27 05:27:19;;;;;;;57.42;29.83;;;;;;;;;;6283083;28;20037;-72
2021/09/27 05:30:33;;;;;;;54.13;28.55;;;;;;;;;;6288693;28;20033;-74
2021/09/27 05:33:42;;;;;;;51.45;30.08;;;;;;;;;;6285259;28;20107;-71
2021/09/27 05:37:02;;;;;;;42.95;25.50;;;;;;;;;;6283950;28;20059;-70
2021/09/27 05:40:26;;;;;;;43.30;25.35;;;;;;;;;;6288277;28;20134;-72
2021/09/27 05:43:32;;;;;;;;;;;;;;;;;;6291647;28;20037;-71
2021/09/27 05:46:44;;;;;;;40.80;25.95;;;;;;;;;;6280194;28;20009;-75
2021/09/27 05:49:55;;;;;;;37.00;24.15;;;;;;;;;;6289304;28;20441;-71
2021/09/27 05:53:03;;;;;;;39.17;23.77;;;;;;;;;;6279171;28;20050;-71
2021/09/27 05:56:09;;;;;;;41.85;25.20;;;;;;;;;;6284252;28;20306;-70
2021/09/27 05:59:13;;;;;;;40.58;25.02;;;;;;;;;;6284798;28;20032;-70
2021/09/27 06:02:38;;;;;;;40.70;24.77;;;;;;;;;;6281570;28;20057;-71
2021/09/27 06:05:45;;;;;;;40.60;24.42;;;;;;;;;;6283733;28;20095;-73
2021/09/27 06:08:53;;;;;;;39.90;24.45;;;;;;;;;;6288178;28;20065;-70
2021/09/27 06:11:58;;;;;;;38.22;23.88;;;;;;;;;;6287251;28;20049;-73
2021/09/27 06:15:03;;;;;;;41.38;25.80;;;;;;;;;;6293505;28;20087;-70
2021/09/27 06:18:13;;;;;;;39.92;24.90;;;;;;;;;;6281937;28;20132;-71
2021/09/27 06:21:31;;;;;;;64.70;35.65;;;;;;;;;;6283504;28;20508;-70
2021/09/27 06:24:41;;;;;;;66.15;37.38;;;;;;;;;;6288286;28;20048;-71
2021/09/27 06:27:51;;;;;;;69.70;37.65;;;;;;;;;;6288579;28;20073;-71
2021/09/27 06:30:56;;;;;;;68.07;37.10;;;;;;;;;;6277106;28;20105;-71
2021/09/27 06:34:01;;;;;;;72.30;38.38;;;;;;;;;;6288497;28;20040;-70
2021/09/27 06:37:04;;;;;;;66.70;36.75;;;;;;;;;;6289042;28;20089;-70
2021/09/27 06:40:07;;;;;;;67.07;36.03;;;;;;;;;;6291866;28;20131;-73
2021/09/27 06:43:11;;;;;;;67.43;36.03;;;;;;;;;;6283414;28;20052;-69
2021/09/27 06:46:13;;;;;;;;;;;;;;;;;;6293014;28;20048;-70
2021/09/27 06:49:16;;;;;;;67.80;35.50;;;;;;;;;;6292520;28;19921;-70
2021/09/27 06:52:18;;;;;;;76.03;39.13;;;;;;;;;;6290850;28;20123;-71
2021/09/27 06:55:19;;;;;;;75.93;38.60;;;;;;;;;;6297515;28;20469;-74
2021/09/27 06:58:23;;;;;;;79.40;38.45;;;;;;;;;;6299946;28;20053;-73
2021/09/27 07:01:25;;;;;;;86.65;40.08;;;;;;;;;;6289274;28;20040;-70
2021/09/27 07:04:28;;;;;;;84.25;41.40;;;;;;;;;;6300487;28;20090;-71
2021/09/27 07:07:29;;;;;;;91.90;41.40;;;;;;;;;;6296077;28;20152;-70
2021/09/27 07:10:31;;;;;;;94.45;40.83;;;;;;;;;;6299966;28;20488;-73
2021/09/27 07:13:32;;;;;;;86.30;38.95;;;;;;;;;;6299412;28;20102;-70
2021/09/27 07:16:34;;;;;;;82.75;38.30;;;;;;;;;;6287432;28;20132;-74
2021/09/27 07:19:39;;;;;;;85.88;39.05;;;;;;;;;;6298385;28;20131;-73
2021/09/27 07:22:41;;;;;;;83.45;37.63;;;;;;;;;;6288501;28;20045;-70
2021/09/27 07:25:43;;;;;;;80.38;37.05;;;;;;;;;;6290759;28;20114;-69
2021/09/27 07:28:46;;;;;;;79.18;36.92;;;;;;;;;;6299371;28;20124;-70
2021/09/27 07:31:47;;;;;;;67.70;33.80;;;;;;;;;;6287663;28;20044;-69
2021/09/27 07:34:50;;;;;;;69.72;33.00;;;;;;;;;;6297316;28;20108;-70
2021/09/27 07:37:52;;;;;;;71.40;34.67;;;;;;;;;;6283317;28;20098;-70
2021/09/27 07:40:54;;;;;;;63.53;32.92;;;;;;;;;;6286271;28;20057;-70
2021/09/27 07:43:57;;;;;;;66.93;32.92;;;;;;;;;;6293506;28;20040;-70
2021/09/27 07:46:58;;;;;;;68.40;33.20;;;;;;;;;;6284109;28;20055;-69
2021/09/27 07:50:02;;;;;;;68.43;33.50;;;;;;;;;;6291131;28;20130;-72
2021/09/27 07:53:03;;;;;;;64.63;32.70;;;;;;;;;;6285714;28;20104;-70
2021/09/27 07:56:05;;;;;;;63.28;31.23;;;;;;;;;;6287472;28;20179;-70
2021/09/27 07:59:07;;;;;;;64.70;32.25;;;;;;;;;;6288817;28;20619;-70
2021/09/27 08:02:08;;;;;;;63.25;31.05;;;;;;;;;;6288814;28;20037;-70
2021/09/27 08:05:14;;;;;;;60.63;31.08;;;;;;;;;;6284659;28;20155;-72
2021/09/27 08:08:17;;;;;;;64.45;30.65;;;;;;;;;;6284482;28;20235;-70
2021/09/27 08:11:19;;;;;;;60.83;30.47;;;;;;;;;;6283993;28;20065;-71
2021/09/27 08:14:21;;;;;;;56.90;28.48;;;;;;;;;;6292180;28;20046;-70
2021/09/27 08:17:22;;;;;;;55.38;29.75;;;;;;;;;;6280009;28;20101;-71
2021/09/27 08:20:27;;;;;;;45.78;26.55;;;;;;;;;;6284732;28;20090;-73
2021/09/27 08:23:30;;;;;;;50.03;26.85;;;;;;;;;;6288163;28;20548;-73
2021/09/27 08:26:31;;;;;;;42.88;26.08;;;;;;;;;;6284500;28;20190;-71
2021/09/27 08:29:33;;;;;;;43.58;25.90;;;;;;;;;;6289833;28;20094;-74
2021/09/27 08:32:34;;;;;;;46.28;25.55;;;;;;;;;;6278877;28;20267;-70
2021/09/27 08:35:37;;;;;;;35.03;22.90;;;;;;;;;;6286175;28;20040;-70
2021/09/27 08:38:40;;;;;;;35.45;21.70;;;;;;;;;;6290637;28;20051;-70
2021/09/27 08:41:51;;;;;;;34.45;20.83;;;;;;;;;;6281652;28;20036;-70
2021/09/27 08:44:56;;;;;;;31.98;20.83;;;;;;;;;;6289659;28;20052;-70
2021/09/27 08:48:01;;;;;;;29.25;20.05;;;;;;;;;;6280085;28;20430;-69
2021/09/27 08:51:04;;;;;;;30.13;19.30;;;;;;;;;;6279572;28;20151;-71
2021/09/27 08:54:12;;;;;;;26.40;18.92;;;;;;;;;;6289978;28;20170;-71
2021/09/27 08:57:26;;;;;;;25.95;19.23;;;;;;;;;;6277701;28;20574;-70
2021/09/27 09:00:32;;;;;;;27.33;19.90;;;;;;;;;;6282757;28;20746;-71
2021/09/27 09:03:43;;;;;;;27.23;18.58;;;;;;;;;;6282035;28;20068;-70
2021/09/27 09:06:49;;;;;;;22.58;17.05;;;;;;;;;;6286453;28;20040;-70
2021/09/27 09:09:54;;;;;;;21.50;15.70;;;;;;;;;;6285351;28;20135;-70
2021/09/27 09:13:00;;;;;;;21.48;14.65;;;;;;;;;;6276764;28;20048;-70
2021/09/27 09:16:05;;;;;;;21.25;16.15;;;;;;;;;;6284094;28;20089;-74
2021/09/27 09:19:09;;;;;;;22.02;15.60;;;;;;;;;;6291208;28;20059;-71
2021/09/27 09:22:20;;;;;;;22.20;16.13;;;;;;;;;;6290795;28;20579;-70
2021/09/27 09:25:27;;;;;;;22.58;17.13;;;;;;;;;;6289345;28;20044;-74
2021/09/27 09:28:29;;;;;;;24.63;17.38;;;;;;;;;;6292266;28;20041;-70
2021/09/27 09:31:34;;;;;;;25.33;18.02;;;;;;;;;;6282608;28;20140;-73
2021/09/27 09:34:36;;;;;;;28.20;19.08;;;;;;;;;;6301184;28;20049;-70
2021/09/27 09:37:42;;;;;;;28.23;19.25;;;;;;;;;;6284119;28;20052;-71
2021/09/27 09:40:53;;;;;;;24.30;17.80;;;;;;;;;;6289376;28;20040;-70
2021/09/27 09:43:55;;;;;;;24.55;16.95;;;;;;;;;;6286832;28;20562;-71
2021/09/27 09:47:03;;;;;;;19.20;15.23;;;;;;;;;;6276767;28;20048;-70
2021/09/27 09:50:08;;;;;;;20.27;14.95;;;;;;;;;;6287988;28;20496;-73
2021/09/27 09:53:21;;;;;;;19.50;14.68;;;;;;;;;;6285657;28;20598;-69
2021/09/27 09:56:31;;;;;;;18.95;14.13;;;;;;;;;;6293520;28;20197;-70
2021/09/27 09:59:36;;;;;;;19.63;14.07;;;;;;;;;;6294261;28;20044;-70
2021/09/27 10:02:39;;;;;;;16.60;13.93;;;;;;;;;;6279851;28;20049;-71
2021/09/27 10:05:43;;;;;;;17.88;13.27;;;;;;;;;;6286929;28;20518;-71
2021/09/27 10:08:52;;;;;;;18.73;13.40;;;;;;;;;;6293444;28;20089;-70
2021/09/27 10:11:55;;;;;;;11.10;9.93;;;;;;;;;;6282497;28;20480;-70
2021/09/27 10:14:57;;;;;;;;;;;;;;;;;;6285301;28;20075;-70
2021/09/27 10:18:01;;;;;;;12.20;9.27;;;;;;;;;;6271391;28;20089;-70
2021/09/27 10:21:25;;;;;;;17.38;13.70;;;;;;;;;;6277011;28;20437;-68
2021/09/27 10:24:40;;;;;;;17.65;14.52;;;;;;;;;;6293101;28;20691;-68
2021/09/27 10:27:44;;;;;;;13.50;10.90;;;;;;;;;;6281668;28;20170;-70
2021/09/27 10:30:49;;;;;;;10.38;8.52;;;;;;;;;;6280229;28;20063;-78
2021/09/27 10:33:55;;;;;;;9.40;8.45;;;;;;;;;;6291703;28;20544;-69
2021/09/27 10:37:03;;;;;;;10.52;8.80;;;;;;;;;;6274609;28;20088;-69
2021/09/27 10:40:13;;;;;;;9.98;7.90;;;;;;;;;;6292191;28;20050;-75
2021/09/27 10:43:17;;;;;;;9.02;8.13;;;;;;;;;;6286735;28;20044;-71
2021/09/27 10:46:21;;;;;;;9.52;8.05;;;;;;;;;;6289292;28;20054;-70
2021/09/27 10:49:26;;;;;;;8.38;7.50;;;;;;;;;;6289046;28;20049;-69
2021/09/27 10:52:38;;;;;;;8.35;7.55;;;;;;;;;;6279732;28;20128;-70
2021/09/27 10:55:52;;;;;;;8.95;8.00;;;;;;;;;;6287948;28;20037;-70
2021/09/27 10:58:54;;;;;;;;;;;;;;;;;;6291017;28;20040;-70
2021/09/27 11:01:58;;;;;;;10.82;9.73;;;;;;;;;;6277709;28;20070;-69
2021/09/27 11:05:08;;;;;;;10.48;9.02;;;;;;;;;;6287322;28;20182;-73
2021/09/27 11:08:12;;;;;;;10.60;9.38;;;;;;;;;;6283325;28;20146;-70
2021/09/27 11:11:37;;;;;;;11.73;9.90;;;;;;;;;;6281954;28;20125;-70
2021/09/27 11:14:46;;;;;;;12.20;9.20;;;;;;;;;;6288664;28;20129;-70
2021/09/27 11:17:49;;;;;;;12.13;9.82;;;;;;;;;;6276346;28;20510;-71
2021/09/27 11:21:02;;;;;;;12.77;8.25;;;;;;;;;;6280415;28;20136;-73
2021/09/27 11:24:21;;;;;;;9.33;8.23;;;;;;;;;;6289865;28;20067;-73
2021/09/27 11:27:35;;;;;;;9.52;8.52;;;;;;;;;;6281754;28;20161;-71
2021/09/27 11:30:42;;;;;;;13.77;9.27;;;;;;;;;;6281423;28;20939;-71
2021/09/27 11:33:46;;;;;;;8.90;7.80;;;;;;;;;;6283433;28;20040;-71
2021/09/27 11:36:55;;;;;;;9.93;8.85;;;;;;;;;;6277111;28;20552;-71
2021/09/27 11:40:18;;;;;;;9.60;8.63;;;;;;;;;;6285423;28;20059;-72
2021/09/27 11:43:36;;;;;;;10.17;9.13;;;;;;;;;;6285640;28;20171;-73
2021/09/27 11:46:48;;;;;;;13.52;10.75;;;;;;;;;;6276670;28;20052;-70
2021/09/27 11:49:59;;;;;;;10.40;9.07;;;;;;;;;;6285656;28;20040;-71
2021/09/27 11:53:05;;;;;;;8.50;7.60;;;;;;;;;;6268603;28;20048;-72
2021/09/27 11:56:10;;;;;;;8.70;7.78;;;;;;;;;;6287202;28;20170;-72
2021/09/27 11:59:21;;;;;;;9.60;8.70;;;;;;;;;;6300925;28;20218;-70
2021/09/27 12:02:31;;;;;;;11.13;9.77;;;;;;;;;;6288458;28;20060;-76
2021/09/27 12:05:42;;;;;;;11.38;9.30;;;;;;;;;;6299596;28;20277;-73
2021/09/27 12:08:48;;;;;;;11.25;10.05;;;;;;;;;;6292729;28;20044;-71
2021/09/27 12:11:52;;;;;;;13.75;11.65;;;;;;;;;;6296906;28;20128;-68
2021/09/27 12:15:02;;;;;;;22.25;19.13;;;;;;;;;;6292516;28;20131;-70
2021/09/27 12:18:04;;;;;;;15.40;12.77;;;;;;;;;;6268897;28;20121;-69
2021/09/27 12:21:11;;;;;;;11.43;10.23;;;;;;;;;;6284408;28;20048;-70
2021/09/27 12:24:16;;;;;;;9.50;8.60;;;;;;;;;;6292447;28;20044;-67
2021/09/27 12:27:19;;;;;;;13.85;9.40;;;;;;;;;;6280666;28;20045;-69
2021/09/27 12:30:26;;;;;;;10.05;8.90;;;;;;;;;;6289578;28;20583;-74
2021/09/27 12:33:27;;;;;;;9.93;8.93;;;;;;;;;;6285955;28;20124;-68
2021/09/27 12:36:29;;;;;;;12.15;8.10;;;;;;;;;;6285973;28;20076;-69
2021/09/27 12:39:31;;;;;;;9.68;8.65;;;;;;;;;;6294312;28;20152;-68
2021/09/27 12:42:38;;;;;;;10.88;9.73;;;;;;;;;;6293815;28;20193;-72
2021/09/27 12:45:43;;;;;;;10.45;9.45;;;;;;;;;;6292642;28;20581;-68
2021/09/27 12:48:48;;;;;;;10.70;9.70;;;;;;;;;;6290442;28;20127;-68
2021/09/27 12:51:54;;;;;;;12.43;10.48;;;;;;;;;;6289812;28;20180;-69
2021/09/27 12:54:56;;;;;;;12.02;10.82;;;;;;;;;;6298944;28;20045;-74
2021/09/27 12:58:17;;;;;;;10.87;9.77;;;;;;;;;;6292138;28;20056;-69
2021/09/27 13:01:22;;;;;;;12.63;11.00;;;;;;;;;;6286296;28;20537;-69
2021/09/27 13:04:33;;;;;;;13.07;11.68;;;;;;;;;;6289238;28;20139;-68
2021/09/27 13:07:39;;;;;;;12.60;11.32;;;;;;;;;;6285802;28;20133;-69
2021/09/27 13:10:49;;;;;;;11.52;10.23;;;;;;;;;;6283229;28;20056;-71
2021/09/27 13:14:02;;;;;;;12.65;11.02;;;;;;;;;;6290954;28;20064;-73
2021/09/27 13:17:15;;;;;;;12.95;10.98;;;;;;;;;;6276508;28;20129;-69
2021/09/27 13:20:32;;;;;;;13.68;12.30;;;;;;;;;;6285557;28;20177;-73
2021/09/27 13:23:39;;;;;;;14.82;12.48;;;;;;;;;;6291030;28;20126;-68
2021/09/27 13:26:45;;;;;;;13.52;12.23;;;;;;;;;;6286961;28;20203;-67
2021/09/27 13:29:50;;;;;;;14.18;12.73;;;;;;;;;;6297934;28;20082;-69
2021/09/27 13:32:56;;;;;;;14.57;12.80;;;;;;;;;;6287106;28;20472;-69
2021/09/27 13:36:00;;;;;;;14.27;12.85;;;;;;;;;;6287623;28;20082;-69
2021/09/27 13:39:08;;;;;;;14.23;12.80;;;;;;;;;;6293261;28;20068;-71
2021/09/27 13:42:11;;;;;;;18.60;12.45;;;;;;;;;;6286446;28;20044;-69
2021/09/27 13:45:16;;;;;;;14.07;12.52;;;;;;;;;;6290970;28;20048;-74
2021/09/27 13:48:19;;;;;;;14.35;12.90;;;;;;;;;;6276910;28;20051;-70
2021/09/27 13:51:25;;;;;;;13.55;12.25;;;;;;;;;;6284465;28;20040;-70
2021/09/27 13:54:26;;;;;;;11.68;10.18;;;;;;;;;;6288010;28;20207;-72
2021/09/27 13:57:28;;;;;;;13.77;12.43;;;;;;;;;;6282449;28;20396;-70
2021/09/27 14:00:29;;;;;;;14.45;12.90;;;;;;;;;;6279188;28;20048;-73
2021/09/27 14:03:32;;;;;;;13.95;12.55;;;;;;;;;;6285986;28;20052;-68
2021/09/27 14:06:34;;;;;;;13.45;11.70;;;;;;;;;;6281985;28;20107;-70
2021/09/27 14:09:36;;;;;;;11.93;10.75;;;;;;;;;;6290127;28;20514;-73
2021/09/27 14:12:38;;;;;;;13.20;11.98;;;;;;;;;;6288317;28;20123;-72
2021/09/27 14:15:40;;;;;;;14.30;12.90;;;;;;;;;;6284598;28;20101;-72
2021/09/27 14:18:46;;;;;;;12.80;11.32;;;;;;;;;;6287467;28;20073;-71
2021/09/27 14:21:47;;;;;;;11.70;10.50;;;;;;;;;;6282528;28;20076;-71
2021/09/27 14:24:49;;;;;;;13.43;11.15;;;;;;;;;;6291319;28;20396;-71
2021/09/27 14:27:51;;;;;;;14.00;11.18;;;;;;;;;;6284456;28;20044;-71
2021/09/27 14:30:54;;;;;;;12.82;11.52;;;;;;;;;;6281838;28;20063;-71
2021/09/27 14:33:57;;;;;;;14.48;13.10;;;;;;;;;;6288600;28;20101;-73
2021/09/27 14:36:58;;;;;;;14.18;12.15;;;;;;;;;;6283421;28;20048;-70
2021/09/27 14:40:00;;;;;;;15.18;11.73;;;;;;;;;;6289448;28;20190;-70
2021/09/27 14:43:02;;;;;;;14.05;12.55;;;;;;;;;;6284388;28;20178;-70
2021/09/27 14:46:03;;;;;;;14.38;12.98;;;;;;;;;;6280658;28;20879;-74
2021/09/27 14:49:07;;;;;;;14.10;12.70;;;;;;;;;;6283883;28;20533;-70
2021/09/27 14:52:08;;;;;;;;;;;;;;;;;;6283213;28;20121;-70
2021/09/27 14:55:11;;;;;;;13.45;11.43;;;;;;;;;;6285895;28;19963;-73
2021/09/27 14:58:16;;;;;;;12.48;11.18;;;;;;;;;;6281549;28;20048;-70
2021/09/27 15:01:18;;;;;;;12.25;11.02;;;;;;;;;;6277879;28;20127;-70
2021/09/27 15:04:20;;;;;;;14.50;12.70;;;;;;;;;;6287125;28;20127;-71
2021/09/27 15:07:22;;;;;;;15.00;11.90;;;;;;;;;;6280587;28;20139;-72
2021/09/27 15:10:24;;;;;;;12.82;11.57;;;;;;;;;;6282396;28;20048;-73
2021/09/27 15:13:25;;;;;;;14.13;12.48;;;;;;;;;;6291784;28;20064;-70
2021/09/27 15:16:27;;;;;;;14.27;12.77;;;;;;;;;;6276290;28;20040;-70
2021/09/27 15:19:30;;;;;;;15.13;13.52;;;;;;;;;;6293773;28;20041;-72
2021/09/27 15:22:32;;;;;;;13.70;12.40;;;;;;;;;;6270447;28;20123;-70
2021/09/27 15:25:43;;;;;;;13.90;12.50;;;;;;;;;;6278757;28;20071;-72
2021/09/27 15:28:45;;;;;;;13.60;12.20;;;;;;;;;;6290204;28;20066;-73
2021/09/27 15:31:49;;;;;;;14.52;12.93;;;;;;;;;;6288332;28;20060;-70
2021/09/27 15:34:53;;;;;;;13.65;12.27;;;;;;;;;;6285538;28;20055;-72
2021/09/27 15:37:54;;;;;;;14.13;12.75;;;;;;;;;;6278897;28;20066;-70
2021/09/27 15:40:56;;;;;;;14.85;12.23;;;;;;;;;;6295236;28;20139;-70
2021/09/27 15:43:58;;;;;;;12.85;11.65;;;;;;;;;;6298117;28;20032;-70
2021/09/27 15:47:04;;;;;;;12.45;11.27;;;;;;;;;;6276479;28;20051;-70
2021/09/27 15:50:08;;;;;;;14.68;12.88;;;;;;;;;;6286944;28;20059;-74
2021/09/27 15:53:10;;;;;;;14.07;12.48;;;;;;;;;;6297202;28;20141;-71
2021/09/27 15:56:14;;;;;;;13.10;11.75;;;;;;;;;;6285398;28;20392;-70
2021/09/27 15:59:16;;;;;;;12.38;11.15;;;;;;;;;;6293406;28;20052;-70
2021/09/27 16:02:18;;;;;;;11.87;10.63;;;;;;;;;;6276487;28;20135;-72
2021/09/27 16:05:21;;;;;;;14.20;10.63;;;;;;;;;;6274889;28;20558;-71
2021/09/27 16:08:23;;;;;;;13.93;10.75;;;;;;;;;;6292208;28;20047;-71
2021/09/27 16:11:24;;;;;;;12.90;11.55;;;;;;;;;;6286202;28;20518;-70
2021/09/27 16:14:26;;;;;;;11.73;10.52;;;;;;;;;;6288705;28;20053;-71
2021/09/27 16:17:28;;;;;;;13.77;12.45;;;;;;;;;;6269879;28;20045;-70
2021/09/27 16:20:32;;;;;;;13.02;11.70;;;;;;;;;;6284923;28;20143;-74
2021/09/27 16:23:33;;;;;;;14.57;12.32;;;;;;;;;;6294165;28;20131;-71
2021/09/27 16:26:38;;;;;;;13.90;12.15;;;;;;;;;;6281597;28;20049;-71
2021/09/27 16:29:39;;;;;;;13.65;12.25;;;;;;;;;;6303143;28;20040;-70
2021/09/27 16:32:41;;;;;;;13.35;11.90;;;;;;;;;;6282302;28;20040;-70
2021/09/27 16:35:44;;;;;;;12.82;11.52;;;;;;;;;;6290698;28;20182;-72
2021/09/27 16:38:46;;;;;;;14.43;12.23;;;;;;;;;;6287851;28;20398;-69
2021/09/27 16:41:48;;;;;;;12.57;11.27;;;;;;;;;;6283068;28;20514;-70
2021/09/27 16:44:50;;;;;;;13.07;11.60;;;;;;;;;;6297264;28;20060;-71
2021/09/27 16:47:52;;;;;;;12.65;11.35;;;;;;;;;;6282282;28;20101;-70
2021/09/27 16:50:55;;;;;;;13.65;12.25;;;;;;;;;;6278137;28;20052;-70
2021/09/27 16:53:56;;;;;;;13.52;11.35;;;;;;;;;;6291032;28;20402;-70
2021/09/27 16:56:58;;;;;;;13.38;11.73;;;;;;;;;;6288470;28;20115;-70
2021/09/27 17:00:00;;;;;;;14.30;12.80;;;;;;;;;;6300107;28;20047;-70
2021/09/27 17:03:01;;;;;;;14.70;13.10;;;;;;;;;;6279848;28;20559;-70
2021/09/27 17:06:06;;;;;;;13.23;11.82;;;;;;;;;;6285281;28;20476;-70
2021/09/27 17:09:08;;;;;;;15.27;13.13;;;;;;;;;;6305047;28;20594;-70
2021/09/27 17:12:11;;;;;;;16.25;12.57;;;;;;;;;;6302397;28;20048;-70
2021/09/27 17:18:33;;;;;;;15.38;12.90;;;;;;;;;;6280450;28;20041;-70
2021/09/27 17:21:37;;;;;;;14.18;12.70;;;;;;;;;;6283629;28;20144;-70
2021/09/27 17:24:39;;;;;;;18.67;13.18;;;;;;;;;;6283569;28;20094;-73
2021/09/27 17:27:41;;;;;;;14.23;11.85;;;;;;;;;;6270224;28;20044;-70
2021/09/27 17:30:44;;;;;;;16.08;14.38;;;;;;;;;;6271310;28;20131;-72
2021/09/27 17:33:47;;;;;;;18.33;14.52;;;;;;;;;;6265079;28;20045;-71
2021/09/27 17:36:50;;;;;;;20.58;16.95;;;;;;;;;;6268528;28;20492;-72
2021/09/27 17:39:51;;;;;;;18.95;15.88;;;;;;;;;;6279980;28;20619;-70
2021/09/27 17:42:55;;;;;;;19.77;14.95;;;;;;;;;;6273682;28;20691;-70
2021/09/27 17:45:56;;;;;;;20.30;14.68;;;;;;;;;;6269845;28;20076;-70
2021/09/27 17:48:58;;;;;;;18.67;14.77;;;;;;;;;;6274798;28;20132;-71
2021/09/27 17:52:01;;;;;;;17.52;15.10;;;;;;;;;;6271752;28;20976;-70
2021/09/27 17:55:03;;;;;;;17.25;15.45;;;;;;;;;;6279363;28;20072;-71
2021/09/27 17:58:05;;;;;;;19.77;16.00;;;;;;;;;;6272172;28;20049;-71
2021/09/27 18:01:07;;;;;;;20.52;15.48;;;;;;;;;;6270015;28;20083;-70
2021/09/27 18:04:10;;;;;;;21.58;16.52;;;;;;;;;;6274692;28;20048;-70
2021/09/27 18:07:13;;;;;;;23.00;17.55;;;;;;;;;;6271322;28;20520;-70
2021/09/27 18:10:16;;;;;;;19.55;16.00;;;;;;;;;;6277575;28;20074;-74